St. Elmo — WDG2405 — position and weather

sailwx.info

Track history (hours):
 
Tides and Currents Weather Stations Pressure Air Temp Water Temp Dewpoint Dewpoint Depression Visibility Wind Speed Wind Dir Waves Ship Positions

St. Elmo

Owner: Marquette Transportation Company Gulf-Inland, LLC, Jefferson, LA. More information available from US FCC via Universal Licensing System and Coast Guard Vessel Documentation Center.

Last reported at 2017-Nov-25 03:26 UTC. Time now 2017-Nov-25 06:02 UTC.
Position N 28°29' W 096°47'.

Length 18 m; draft 3 m.

Type: . MMSI: 367515330.

Date/timePositionNaut miles runAvg speedWind from/ knotsBaromVisibWave heightAir tempDewpointWater temp
2017-Nov-25 03:26N 28°29' W 096°47'0 0.0
2017-Nov-25 02:53N 28°29' W 096°47'0 0.0
2017-Nov-25 02:24N 28°29' W 096°47'0 0.0
2017-Nov-25 02:00N 28°29' W 096°47'0 0.0
2017-Nov-25 01:29N 28°29' W 096°47'0 0.0
2017-Nov-25 00:42N 28°29' W 096°47'0 0.0
2017-Nov-25 00:30N 28°29' W 096°47'8 0.7
2017-Nov-24 12:30N 28°22' W 096°43'3 5.1
2017-Nov-24 11:58N 28°20' W 096°41'119 4.5
2017-Nov-23 09:50N 29°34' W 094°55'2 5.7
2017-Nov-23 09:30N 29°36' W 094°57'3 5.2
2017-Nov-23 09:00N 29°37' W 094°59'2 3.4
2017-Nov-23 08:30N 29°36' W 095°01'0 0.0
2017-Nov-23 08:00N 29°36' W 095°01'0 0.1
2017-Nov-23 07:30N 29°37' W 095°01'1 2.7
2017-Nov-23 07:00N 29°37' W 094°60'2 3.7
2017-Nov-23 06:30N 29°38' W 094°58'3 5.7
2017-Nov-23 06:00N 29°41' W 094°59'3 5.6
2017-Nov-23 05:30N 29°43' W 095°01'3 5.3
2017-Nov-23 04:59N 29°44' W 095°04'  
2017-Nov-18 00:36N 29°34' W 094°55'1 5.8
2017-Nov-18 00:30N 29°34' W 094°56'3 5.8
2017-Nov-18 00:00N 29°37' W 094°57'3 6.1
2017-Nov-17 23:30N 29°40' W 094°58'3 5.5
2017-Nov-17 22:57N 29°42' W 095°00'2 5.3
2017-Nov-17 22:29N 29°44' W 095°02'12 0.4
2017-Nov-16 18:36N 29°43' W 095°16'0 0.3
2017-Nov-16 18:29N 29°43' W 095°16'7 0.9
2017-Nov-16 10:13N 29°44' W 095°08'3 0.1
2017-Nov-15 14:01N 29°46' W 095°05'0 1.4
2017-Nov-15 13:53N 29°46' W 095°05'1 0.1
2017-Nov-15 06:46N 29°46' W 095°04'1 5.0
2017-Nov-15 06:30N 29°45' W 095°04'3 4.6
2017-Nov-15 05:56N 29°43' W 095°01'2 4.2
2017-Nov-15 05:30N 29°42' W 094°60'2 4.7
2017-Nov-15 05:00N 29°40' W 094°58'3 5.5
2017-Nov-15 04:30N 29°37' W 094°57'3 5.6
2017-Nov-15 03:59N 29°35' W 094°56'3 5.9
2017-Nov-15 03:30N 29°32' W 094°54'  
Track history (hours):
 
Tides and Currents Weather Stations Pressure Air Temp Water Temp Dewpoint Dewpoint Depression Visibility Wind Speed Wind Dir Waves Ship Positions

St. Elmo

Owner: Marquette Transportation Company Gulf-Inland, LLC, Jefferson, LA. More information available from US FCC via Universal Licensing System and Coast Guard Vessel Documentation Center.

Last reported at 2017-Nov-25 03:26 UTC. Time now 2017-Nov-25 06:02 UTC.
Position N 28°29' W 096°47'.

Length 18 m; draft 3 m.

Type: . MMSI: 367515330.

Date/timePositionNaut miles runAvg speedWind from/ knotsBaromVisibWave heightAir tempDewpointWater temp
2017-Nov-25 03:26N 28°29' W 096°47'0 0.0
2017-Nov-25 02:53N 28°29' W 096°47'0 0.0
2017-Nov-25 02:24N 28°29' W 096°47'0 0.0
2017-Nov-25 02:00N 28°29' W 096°47'0 0.0
2017-Nov-25 01:29N 28°29' W 096°47'0 0.0
2017-Nov-25 00:42N 28°29' W 096°47'0 0.0
2017-Nov-25 00:30N 28°29' W 096°47'8 0.7
2017-Nov-24 12:30N 28°22' W 096°43'3 5.1
2017-Nov-24 11:58N 28°20' W 096°41'119 4.5
2017-Nov-23 09:50N 29°34' W 094°55'2 5.7
2017-Nov-23 09:30N 29°36' W 094°57'3 5.2
2017-Nov-23 09:00N 29°37' W 094°59'2 3.4
2017-Nov-23 08:30N 29°36' W 095°01'0 0.0
2017-Nov-23 08:00N 29°36' W 095°01'0 0.1
2017-Nov-23 07:30N 29°37' W 095°01'1 2.7
2017-Nov-23 07:00N 29°37' W 094°60'2 3.7
2017-Nov-23 06:30N 29°38' W 094°58'3 5.7
2017-Nov-23 06:00N 29°41' W 094°59'3 5.6
2017-Nov-23 05:30N 29°43' W 095°01'3 5.3
2017-Nov-23 04:59N 29°44' W 095°04'  
2017-Nov-18 00:36N 29°34' W 094°55'1 5.8
2017-Nov-18 00:30N 29°34' W 094°56'3 5.8
2017-Nov-18 00:00N 29°37' W 094°57'3 6.1
2017-Nov-17 23:30N 29°40' W 094°58'3 5.5
2017-Nov-17 22:57N 29°42' W 095°00'2 5.3
2017-Nov-17 22:29N 29°44' W 095°02'12 0.4
2017-Nov-16 18:36N 29°43' W 095°16'0 0.3
2017-Nov-16 18:29N 29°43' W 095°16'7 0.9
2017-Nov-16 10:13N 29°44' W 095°08'3 0.1
2017-Nov-15 14:01N 29°46' W 095°05'0 1.4
2017-Nov-15 13:53N 29°46' W 095°05'1 0.1
2017-Nov-15 06:46N 29°46' W 095°04'1 5.0
2017-Nov-15 06:30N 29°45' W 095°04'3 4.6
2017-Nov-15 05:56N 29°43' W 095°01'2 4.2
2017-Nov-15 05:30N 29°42' W 094°60'2 4.7
2017-Nov-15 05:00N 29°40' W 094°58'3 5.5
2017-Nov-15 04:30N 29°37' W 094°57'3 5.6
2017-Nov-15 03:59N 29°35' W 094°56'3 5.9
2017-Nov-15 03:30N 29°32' W 094°54'  

Dump ship's entire track history